PASX

Details ICAO PASX
Name SOLDOTNA
Region USA (Alaska)
Timezone America/Anchorage (UTC-8.0)
Plans Departing 6
Arriving 9
Stats Elevation 113 ft / 34 m (AMSL)
Location 60.474958° -151.038239°
Runways 1
Magnetic Variation 15.620° E
Sunrise 2018-05-20 13:12:03 UTC / 2018-05-20 05:12:03 Local
Sunset 2018-05-21 06:52:12 UTC / 2018-05-20 22:52:12 Local
Advertisement - Login to hide

Runways

ID Width Length Bearing (true) Bearing (mag) Surface Threshold Offset Overrun Length
07 132 ft / 40 m 4,983 ft / 1,519 m 90.01° 74.39° Asphalt 0 ft / 0 m 0 ft / 0 m
25 132 ft / 40 m 4,983 ft / 1,519 m 270.03° 254.41° Asphalt 0 ft / 0 m 0 ft / 0 m

Map

Weather


0- 5 10 15 20 25 30 35+ Temperature / ° C

Clouds and Precipitation
Forecast for 2018-05-20 12:00 UTC. Updated 2 hours ago

Ground ~20,000 ft ~40,000 ft Winds

METAR

PASX 201156Z AUTO 09004KT 10SM FEW090 06/02 A2970 RMK AO2 SLP066 T00610017 10089 20050 56016

TAF

Not found

Frequencies

Recorded 135.45 MHz AWOS 3
Unicom 122.50 MHz CTAF
Warning: Do not use this data for real-world aviation or navigation. No guarantee of current accuracy is given.